createdAt,value
2022-11-19T00:00:43.816Z,0
2022-11-19T00:01:44.176Z,0
2022-11-19T00:02:44.065Z,0
2022-11-19T00:03:47.630Z,0
2022-11-19T00:04:43.981Z,0
2022-11-19T00:05:44.307Z,0
2022-11-19T00:06:44.358Z,0
2022-11-19T00:07:43.923Z,0
2022-11-19T00:08:43.893Z,0
2022-11-19T00:09:44.131Z,0
2022-11-19T00:10:44.136Z,0
2022-11-19T00:11:44.094Z,0
2022-11-19T00:12:43.855Z,0
2022-11-19T00:13:43.811Z,0
2022-11-19T00:14:43.805Z,0
2022-11-19T00:15:43.750Z,0
2022-11-19T00:16:43.490Z,0
2022-11-19T00:17:43.979Z,0
2022-11-19T00:18:43.714Z,0
2022-11-19T00:19:43.419Z,0
2022-11-19T00:20:43.639Z,0
2022-11-19T00:21:43.459Z,0
2022-11-19T00:22:43.375Z,0
2022-11-19T00:23:43.870Z,0
2022-11-19T00:24:43.830Z,0
2022-11-19T00:25:43.311Z,0
2022-11-19T00:26:43.537Z,0
2022-11-19T00:27:43.767Z,0
2022-11-19T00:28:43.489Z,0
2022-11-19T00:29:43.478Z,0
2022-11-19T00:30:57.756Z,0
2022-11-19T00:31:43.670Z,0
2022-11-19T00:32:43.446Z,0
2022-11-19T00:33:43.119Z,0
2022-11-19T00:34:43.368Z,0
2022-11-19T00:35:43.341Z,0
2022-11-19T00:36:43.064Z,0
2022-11-19T00:37:43.760Z,0
2022-11-19T00:38:43.083Z,0
2022-11-19T00:39:43.301Z,0
2022-11-19T00:40:42.985Z,0
2022-11-19T00:41:42.722Z,0
2022-11-19T00:42:43.194Z,0
2022-11-19T00:43:43.187Z,0
2022-11-19T03:50:08.483Z,0
2022-11-19T03:51:07.824Z,0
2022-11-19T03:52:08.046Z,0
2022-11-19T03:53:12.614Z,0
2022-11-19T03:54:07.931Z,0
2022-11-19T03:55:07.563Z,0
2022-11-19T03:56:07.968Z,0
2022-11-19T03:57:08.198Z,0
2022-11-19T03:58:07.669Z,0
2022-11-19T03:59:10.475Z,0
2022-11-19T04:00:07.638Z,0
2022-11-19T04:01:07.872Z,0
2022-11-19T04:02:07.463Z,0
2022-11-19T04:03:07.308Z,0
2022-11-19T04:04:07.835Z,0
2022-11-19T04:05:07.015Z,0
2022-11-19T04:06:08.136Z,0
2022-11-19T04:07:08.152Z,0
2022-11-19T04:08:07.710Z,0
2022-11-19T04:09:07.432Z,0
2022-11-19T04:10:07.683Z,0
2022-11-19T04:12:07.880Z,0
2022-11-19T04:13:07.648Z,0
2022-11-19T04:14:07.328Z,0
2022-11-19T04:15:07.822Z,0
2022-11-19T04:16:07.035Z,0
2022-11-19T04:17:07.277Z,0
2022-11-19T04:18:07.755Z,0
2022-11-19T04:19:07.476Z,0
2022-11-19T04:20:07.717Z,0
2022-11-19T04:21:07.180Z,0
2022-11-19T04:22:07.791Z,0
2022-11-19T04:23:07.169Z,0
2022-11-19T04:24:06.863Z,0
2022-11-19T04:25:07.366Z,0
2022-11-19T04:26:07.362Z,0
2022-11-19T04:27:07.568Z,0
2022-11-19T04:28:07.045Z,0
2022-11-19T04:29:07.023Z,0
2022-11-19T04:30:07.297Z,0
2022-11-19T04:31:07.499Z,0
2022-11-19T04:32:06.967Z,0
2022-11-19T04:33:07.547Z,0
2022-11-19T04:34:06.914Z,0
2022-11-19T04:35:06.651Z,0
2022-11-19T04:36:07.114Z,0
2022-11-19T04:37:07.100Z,0
2022-11-19T04:38:07.465Z,0
2022-11-19T04:39:06.797Z,0
2022-11-19T04:40:06.551Z,0
2022-11-19T04:41:07.308Z,0
2022-11-19T04:42:07.008Z,0
2022-11-19T04:43:06.977Z,0
2022-11-19T04:44:06.433Z,0
2022-11-19T04:45:06.926Z,0
2022-11-19T04:46:06.902Z,0
2022-11-19T04:47:07.143Z,0
2022-11-19T04:48:06.614Z,0
2022-11-19T04:49:06.838Z,0
2022-11-19T04:50:06.564Z,0
2022-11-19T04:51:07.054Z,0
2022-11-19T04:52:06.011Z,0
2022-11-19T04:53:06.255Z,0
2022-11-19T04:54:07.126Z,0
2022-11-19T04:55:06.480Z,0
2022-11-19T04:56:06.436Z,0
2022-11-19T04:57:06.409Z,0
2022-11-19T04:58:07.173Z,0
2022-11-19T04:59:06.110Z,0
2022-11-19T05:00:06.866Z,0
2022-11-19T05:01:06.965Z,0
2022-11-19T05:02:06.482Z,0
2022-11-19T05:03:06.299Z,0
2022-11-19T05:04:06.012Z,0
2022-11-19T05:05:06.248Z,0
2022-11-19T05:06:06.229Z,0
2022-11-19T05:07:06.533Z,0
2022-11-19T05:08:06.190Z,0
2022-11-19T05:09:06.414Z,0
2022-11-19T05:10:06.819Z,0
2022-11-19T05:11:06.113Z,0
2022-11-19T05:12:06.109Z,0
2022-11-19T05:13:06.330Z,0
2022-11-19T05:14:05.808Z,0
2022-11-19T05:15:06.286Z,0
2022-11-19T05:16:06.018Z,0
2022-11-19T05:17:06.253Z,0
2022-11-19T05:18:06.252Z,0
2022-11-19T05:19:05.959Z,0
2022-11-19T05:20:06.193Z,0
2022-11-19T05:21:06.170Z,0
2022-11-19T05:22:06.145Z,0
2022-11-19T05:23:05.863Z,0
2022-11-19T05:24:05.867Z,0
2022-11-19T05:25:05.829Z,0
2022-11-19T05:26:06.445Z,0
2022-11-19T05:27:05.526Z,0
2022-11-19T05:28:05.513Z,0
2022-11-19T05:29:05.483Z,0
2022-11-19T05:30:05.977Z,0
2022-11-19T05:31:05.955Z,0
2022-11-19T05:32:05.688Z,0
2022-11-19T05:33:06.180Z,0
2022-11-19T05:34:05.891Z,0
2022-11-19T05:35:05.868Z,0
2022-11-19T05:36:05.597Z,0
2022-11-19T05:37:06.096Z,0
2022-11-19T05:38:05.542Z,0
2022-11-19T05:39:05.276Z,0
2022-11-19T05:40:05.248Z,0
2022-11-19T05:41:05.742Z,0
2022-11-19T05:42:06.118Z,0
2022-11-19T05:43:05.697Z,0
2022-11-19T05:44:05.160Z,0
2022-11-19T05:45:05.398Z,0
2022-11-19T05:46:05.377Z,0
2022-11-19T05:47:05.144Z,0
2022-11-19T05:48:05.341Z,0
2022-11-19T05:49:05.573Z,0
2022-11-19T05:50:05.044Z,0
2022-11-19T05:51:05.025Z,0
2022-11-19T05:52:05.252Z,0
2022-11-19T05:53:05.251Z,0
2022-11-19T05:54:05.570Z,0
2022-11-19T05:55:05.455Z,0
2022-11-19T05:56:05.688Z,0
2022-11-19T05:57:05.408Z,0
2022-11-19T05:58:05.774Z,0
2022-11-19T05:59:04.874Z,0
2022-11-19T06:00:05.086Z,0
2022-11-19T06:01:05.390Z,0
2022-11-19T06:02:04.796Z,0
2022-11-19T06:03:05.338Z,0
2022-11-19T06:04:04.500Z,0
2022-11-19T06:05:04.987Z,0
2022-11-19T06:06:05.225Z,0
2022-11-19T06:07:05.195Z,0
2022-11-19T06:08:05.186Z,0
2022-11-19T06:09:04.898Z,0
2022-11-19T06:10:04.615Z,0
2022-11-19T06:11:05.121Z,0
2022-11-19T06:12:05.098Z,0
2022-11-19T06:13:05.079Z,0
2022-11-19T06:14:05.419Z,0
2022-11-19T06:15:05.299Z,0
2022-11-19T06:16:05.501Z,0
2022-11-19T06:17:04.727Z,0
2022-11-19T06:18:04.457Z,0
2022-11-19T06:19:04.687Z,0
2022-11-19T06:20:04.408Z,0
2022-11-19T06:21:11.970Z,0
2022-11-19T06:22:04.884Z,0
2022-11-19T06:23:04.601Z,0
2022-11-19T06:24:04.875Z,0
2022-11-19T06:25:05.116Z,0
2022-11-19T06:26:04.828Z,0
2022-11-19T06:27:05.033Z,0
2022-11-19T06:28:04.500Z,0
2022-11-19T06:29:04.734Z,0
2022-11-19T06:30:06.199Z,0
2022-11-19T06:31:04.248Z,0
2022-11-19T06:32:04.158Z,0
2022-11-19T06:33:04.649Z,5
2022-11-19T06:34:04.644Z,5
2022-11-19T06:35:04.883Z,5
2022-11-19T06:36:04.892Z,5
2022-11-19T06:37:04.568Z,5
2022-11-19T06:38:04.056Z,5
2022-11-19T06:39:04.777Z,5
2022-11-19T06:40:04.260Z,5
2022-11-19T06:41:04.223Z,5
2022-11-19T06:42:04.210Z,10
2022-11-19T06:43:04.191Z,10
2022-11-19T06:44:03.911Z,10
2022-11-19T06:45:04.143Z,10
2022-11-19T06:46:04.799Z,10
2022-11-19T06:47:03.839Z,10
2022-11-19T06:48:04.335Z,15
2022-11-19T06:49:04.054Z,15
2022-11-19T06:50:04.299Z,15
2022-11-19T06:51:04.347Z,15
2022-11-19T06:52:04.326Z,15
2022-11-19T06:53:04.305Z,15
2022-11-19T06:54:03.775Z,15
2022-11-19T06:55:04.537Z,15
2022-11-19T06:56:04.244Z,20
2022-11-19T06:57:04.488Z,20
2022-11-19T06:58:04.206Z,20
2022-11-19T06:59:04.455Z,20
2022-11-19T07:00:03.979Z,20
2022-11-19T07:01:03.909Z,20
2022-11-19T07:02:05.017Z,25
2022-11-19T07:03:04.382Z,25
2022-11-19T07:04:03.819Z,25
2022-11-19T07:05:04.067Z,25
2022-11-19T07:06:04.299Z,25
2022-11-19T07:07:04.497Z,25
2022-11-19T07:08:10.885Z,25
2022-11-19T07:09:03.986Z,25
2022-11-19T07:10:03.945Z,30
2022-11-19T07:11:04.187Z,30
2022-11-19T07:12:03.912Z,30
2022-11-19T07:13:03.886Z,30
2022-11-19T07:14:04.134Z,30
2022-11-19T07:15:10.953Z,30
2022-11-19T07:16:03.574Z,30
2022-11-19T07:17:03.557Z,30
2022-11-19T07:18:04.203Z,30
2022-11-19T07:19:03.766Z,35
2022-11-19T07:20:03.490Z,35
2022-11-19T07:21:03.470Z,35
2022-11-19T07:22:03.479Z,35
2022-11-19T07:23:08.248Z,35
2022-11-19T07:24:03.648Z,35
2022-11-19T07:25:03.382Z,35
2022-11-19T07:26:03.111Z,35
2022-11-19T07:27:03.335Z,35
2022-11-19T07:28:03.059Z,40
2022-11-19T07:29:10.316Z,45
2022-11-19T07:30:03.278Z,45
2022-11-19T07:31:02.998Z,50
2022-11-19T07:32:04.380Z,50
2022-11-19T07:33:04.114Z,55
2022-11-19T07:34:05.349Z,55
2022-11-19T07:35:04.404Z,55
2022-11-19T07:36:03.786Z,55
2022-11-19T07:37:04.283Z,60
2022-11-19T07:38:04.248Z,65
2022-11-19T07:39:04.506Z,65
2022-11-19T07:40:03.959Z,65
2022-11-19T07:41:03.939Z,65
2022-11-19T07:42:03.930Z,60
2022-11-19T07:43:04.149Z,60
2022-11-19T07:44:03.872Z,60
2022-11-19T07:45:04.339Z,60
2022-11-19T07:46:04.084Z,60
2022-11-19T07:47:03.549Z,60
2022-11-19T07:48:03.796Z,60
2022-11-19T07:49:04.288Z,65
2022-11-19T07:50:04.377Z,60
2022-11-19T07:51:05.731Z,60
2022-11-19T07:52:03.987Z,55
2022-11-19T07:53:03.697Z,50
2022-11-19T07:54:04.189Z,50
2022-11-19T07:55:03.640Z,50
2022-11-19T07:56:03.368Z,50
2022-11-19T07:57:03.121Z,50
2022-11-19T07:58:03.849Z,50
2022-11-19T07:59:03.559Z,45
2022-11-19T08:00:03.272Z,50
2022-11-19T08:01:03.776Z,50
2022-11-19T08:02:03.579Z,50
2022-11-19T08:03:03.475Z,55
2022-11-19T08:04:06.402Z,55
2022-11-19T08:05:03.177Z,55
2022-11-19T08:06:04.061Z,60
2022-11-19T08:07:03.462Z,60
2022-11-19T08:08:03.109Z,65
2022-11-19T08:09:03.602Z,65
2022-11-19T08:10:03.327Z,75
2022-11-19T08:11:03.314Z,75
2022-11-19T08:12:03.543Z,75
2022-11-19T08:13:03.047Z,80
2022-11-19T08:14:03.545Z,80
2022-11-19T08:15:03.739Z,80
2022-11-19T08:16:02.960Z,85
2022-11-19T08:17:03.183Z,85
2022-11-19T08:18:03.418Z,90
2022-11-19T08:19:03.142Z,90
2022-11-19T08:20:03.375Z,90
2022-11-19T08:21:02.849Z,90
2022-11-19T08:22:03.731Z,90
2022-11-19T08:23:03.320Z,90
2022-11-19T08:24:03.554Z,90
2022-11-19T08:25:03.034Z,90
2022-11-19T08:26:03.027Z,90
2022-11-19T08:27:02.464Z,95
2022-11-19T08:28:03.217Z,100
2022-11-19T08:29:02.971Z,100
2022-11-19T08:30:03.457Z,105
2022-11-19T08:31:03.151Z,105
2022-11-19T08:32:02.868Z,110
2022-11-19T08:33:03.371Z,110
2022-11-19T08:34:03.100Z,115
2022-11-19T08:35:03.085Z,115
2022-11-19T08:36:03.058Z,115
2022-11-19T08:37:03.041Z,115
2022-11-19T08:38:03.666Z,115
2022-11-19T08:39:02.744Z,110
2022-11-19T08:40:02.788Z,110
2022-11-19T08:41:03.468Z,110
2022-11-19T08:42:02.931Z,110
2022-11-19T08:43:03.198Z,105
2022-11-19T08:44:02.657Z,105
2022-11-19T08:45:03.124Z,110
2022-11-19T08:46:03.126Z,110
2022-11-19T08:47:03.017Z,110
2022-11-19T08:48:03.497Z,110
2022-11-19T08:49:03.065Z,110
2022-11-19T08:50:02.792Z,110
2022-11-19T08:51:03.039Z,115
2022-11-19T08:52:02.741Z,115
2022-11-19T08:53:02.224Z,120
2022-11-19T08:54:03.348Z,120
2022-11-19T08:55:02.681Z,120
2022-11-19T08:56:02.919Z,115
2022-11-19T08:57:02.630Z,115
2022-11-19T08:58:03.125Z,115
2022-11-19T08:59:09.865Z,115
2022-11-19T09:00:10.462Z,115
2022-11-19T09:01:03.157Z,110
2022-11-19T09:02:02.530Z,110
2022-11-19T09:03:02.516Z,110
2022-11-19T09:04:03.040Z,110
2022-11-19T09:05:02.494Z,115
2022-11-19T09:06:02.445Z,115
2022-11-19T09:07:02.716Z,115
2022-11-19T09:08:02.663Z,120
2022-11-19T09:09:02.387Z,115
2022-11-19T09:10:03.012Z,120
2022-11-19T09:11:02.402Z,120
2022-11-19T09:12:02.336Z,120
2022-11-19T09:13:02.831Z,125
2022-11-19T09:14:02.546Z,125
2022-11-19T09:15:02.366Z,125
2022-11-19T09:16:02.500Z,125
2022-11-19T09:17:01.970Z,125
2022-11-19T09:18:02.225Z,125
2022-11-19T09:19:03.232Z,125
2022-11-19T09:20:03.207Z,125
2022-11-19T09:21:02.423Z,125
2022-11-19T09:22:03.171Z,125
2022-11-19T09:23:03.150Z,125
2022-11-19T09:24:03.149Z,125
2022-11-19T09:25:02.849Z,125
2022-11-19T09:26:03.479Z,120
2022-11-19T09:27:09.346Z,115
2022-11-19T09:28:03.136Z,115
2022-11-19T09:29:02.514Z,120
2022-11-19T09:30:03.647Z,120
2022-11-19T09:31:03.002Z,120
2022-11-19T09:32:02.963Z,115
2022-11-19T09:33:03.206Z,115
2022-11-19T09:34:03.182Z,115
2022-11-19T09:35:02.649Z,115
2022-11-19T09:36:02.893Z,115
2022-11-19T09:37:02.880Z,120
2022-11-19T09:38:02.336Z,125
2022-11-19T09:39:03.170Z,130
2022-11-19T09:40:02.810Z,130
2022-11-19T09:41:02.528Z,130
2022-11-19T09:42:03.135Z,135
2022-11-19T09:43:02.489Z,135
2022-11-19T09:44:02.486Z,135
2022-11-19T09:45:02.440Z,135
2022-11-19T09:46:02.930Z,135
2022-11-19T09:47:02.162Z,140
2022-11-19T09:48:02.646Z,145
2022-11-19T09:49:02.390Z,150
2022-11-19T09:50:02.347Z,155
2022-11-19T09:51:02.847Z,155
2022-11-19T09:52:02.559Z,155
2022-11-19T09:53:02.801Z,155
2022-11-19T09:54:02.019Z,155
2022-11-19T09:55:02.536Z,155
2022-11-19T09:56:02.224Z,160
2022-11-19T09:57:09.448Z,160
2022-11-19T09:58:02.325Z,160
2022-11-19T09:59:02.202Z,160
2022-11-19T10:00:02.140Z,160
2022-11-19T10:01:02.131Z,160
2022-11-19T10:02:02.101Z,160
2022-11-19T10:03:02.417Z,160
2022-11-19T10:04:02.322Z,160
2022-11-19T10:05:02.333Z,160
2022-11-19T10:06:01.759Z,165
2022-11-19T10:07:02.330Z,165
2022-11-19T10:08:02.242Z,170
2022-11-19T10:09:02.213Z,170
2022-11-19T10:10:02.353Z,170
2022-11-19T10:11:01.942Z,170
2022-11-19T10:12:01.647Z,165
2022-11-19T10:13:01.987Z,165
2022-11-19T10:14:02.445Z,165
2022-11-19T10:15:02.097Z,165
2022-11-19T10:16:01.830Z,165
2022-11-19T10:17:01.797Z,165
2022-11-19T10:18:01.788Z,170
2022-11-19T10:19:02.114Z,170
2022-11-19T10:20:01.782Z,170
2022-11-19T10:21:02.234Z,165
2022-11-19T10:22:01.718Z,165
2022-11-19T10:23:06.414Z,165
2022-11-19T10:24:01.694Z,160
2022-11-19T10:25:01.644Z,160
2022-11-19T10:26:01.628Z,155
2022-11-19T10:27:08.711Z,150
2022-11-19T10:28:01.902Z,145
2022-11-19T10:29:01.901Z,135
2022-11-19T10:30:01.611Z,130
2022-11-19T10:31:01.790Z,120
2022-11-19T10:32:01.506Z,115
2022-11-19T10:33:01.750Z,110
2022-11-19T10:34:01.491Z,110
2022-11-19T10:35:01.229Z,110
2022-11-19T10:36:01.944Z,110
2022-11-19T10:37:01.929Z,105
2022-11-19T10:38:01.397Z,105
2022-11-19T10:39:01.629Z,100
2022-11-19T10:40:01.367Z,105
2022-11-19T10:41:01.074Z,110
2022-11-19T10:42:01.316Z,125
2022-11-19T10:43:01.555Z,140
2022-11-19T10:44:01.528Z,140
2022-11-19T10:45:01.867Z,140
2022-11-19T10:46:01.301Z,140
2022-11-19T10:47:00.953Z,135
2022-11-19T10:48:04.639Z,130
2022-11-19T10:49:00.928Z,125
2022-11-19T10:50:04.516Z,135
2022-11-19T10:51:01.647Z,135
2022-11-19T10:52:01.134Z,145
2022-11-19T10:53:01.117Z,145
2022-11-19T10:54:00.563Z,145
2022-11-19T10:55:00.551Z,140
2022-11-19T10:56:04.438Z,140
2022-11-19T10:57:01.043Z,140
2022-11-19T10:58:01.512Z,150
2022-11-19T10:59:00.735Z,150
2022-11-19T11:00:00.960Z,150
2022-11-19T11:01:01.655Z,150
2022-11-19T11:02:01.481Z,150
2022-11-19T11:03:01.159Z,145
2022-11-19T11:04:01.142Z,145
2022-11-19T11:05:00.895Z,140
2022-11-19T11:06:00.842Z,140
2022-11-19T11:07:01.308Z,140
2022-11-19T11:08:01.408Z,140
2022-11-19T11:09:00.519Z,140
2022-11-19T11:10:01.283Z,140
2022-11-19T11:11:00.749Z,135
2022-11-19T11:12:00.720Z,130
2022-11-19T11:13:00.711Z,130
2022-11-19T11:14:00.689Z,130
2022-11-19T11:15:00.951Z,120
2022-11-19T11:16:00.662Z,115
2022-11-19T11:17:00.980Z,110
2022-11-19T11:18:00.909Z,100
2022-11-19T11:19:00.849Z,95
2022-11-19T11:20:00.827Z,85
2022-11-19T11:21:00.806Z,80
2022-11-19T11:22:00.291Z,75
2022-11-19T11:23:00.251Z,70
2022-11-19T11:24:01.004Z,70
2022-11-19T11:25:07.550Z,65
2022-11-19T11:26:00.720Z,65
2022-11-19T11:27:00.701Z,65
2022-11-19T11:28:00.431Z,65
2022-11-19T11:29:00.409Z,65
2022-11-19T11:30:00.631Z,65
2022-11-19T11:31:00.869Z,65
2022-11-19T11:32:00.534Z,60
2022-11-19T11:33:00.900Z,60
2022-11-19T11:34:00.713Z,60
2022-11-19T11:35:07.584Z,60
2022-11-19T11:36:00.528Z,55
2022-11-19T11:36:59.729Z,55
2022-11-19T11:38:00.217Z,55
2022-11-19T11:39:00.444Z,55
2022-11-19T11:40:00.433Z,55
2022-11-19T11:42:17.358Z,55
2022-11-19T11:42:27.074Z,55
2022-11-19T11:43:27.570Z,55
2022-11-19T11:44:27.041Z,55
2022-11-19T11:45:27.604Z,60
2022-11-19T11:46:27.260Z,60
2022-11-19T11:47:26.987Z,60
2022-11-19T11:48:27.300Z,60
2022-11-19T11:49:27.926Z,60
2022-11-19T11:50:26.928Z,60
2022-11-19T11:51:26.768Z,60
2022-11-19T11:52:26.633Z,60
2022-11-19T11:53:27.562Z,60
2022-11-19T11:54:28.128Z,60
2022-11-19T11:55:27.663Z,60
2022-11-19T11:56:28.376Z,60
2022-11-19T11:57:27.474Z,60
2022-11-19T11:58:27.468Z,60
2022-11-19T11:59:28.925Z,60
2022-11-19T12:00:27.428Z,60
2022-11-19T12:01:27.162Z,60
2022-11-19T12:02:28.398Z,60
2022-11-19T12:03:27.625Z,60
2022-11-19T12:04:28.196Z,65
2022-11-19T12:05:27.835Z,65
2022-11-19T12:06:28.070Z,65
2022-11-19T12:07:28.505Z,65
2022-11-19T12:08:34.367Z,65
2022-11-19T12:09:28.769Z,65
2022-11-19T12:10:27.495Z,60
2022-11-19T12:11:27.717Z,60
2022-11-19T12:12:27.687Z,60
2022-11-19T12:13:27.672Z,65
2022-11-19T12:14:27.405Z,65
2022-11-19T12:15:27.885Z,60
2022-11-19T12:16:27.608Z,60
2022-11-19T12:17:27.330Z,65
2022-11-19T12:18:26.811Z,70
2022-11-19T12:19:28.858Z,75
2022-11-19T12:20:27.646Z,80
2022-11-19T12:21:27.307Z,95
2022-11-19T12:22:26.978Z,105
2022-11-19T12:23:26.985Z,115
2022-11-19T12:24:26.686Z,115
2022-11-19T12:25:27.433Z,90
2022-11-19T12:26:27.149Z,80
2022-11-19T12:27:27.132Z,85
2022-11-19T12:28:27.106Z,65
2022-11-19T12:29:27.770Z,70
2022-11-19T12:30:27.319Z,60
2022-11-19T12:31:33.411Z,45
2022-11-19T12:32:27.023Z,55
2022-11-19T12:33:27.516Z,50
2022-11-19T12:34:27.245Z,50
2022-11-19T12:35:26.715Z,60
2022-11-19T12:36:27.530Z,65
2022-11-19T12:37:27.482Z,75
2022-11-19T12:38:27.254Z,65
2022-11-19T12:39:27.940Z,55
2022-11-19T12:40:29.069Z,45
2022-11-19T12:41:27.353Z,30
2022-11-19T12:42:26.559Z,35
2022-11-19T12:43:26.559Z,30
2022-11-19T12:44:27.027Z,25
2022-11-19T12:45:26.810Z,30
2022-11-19T12:46:26.744Z,30
2022-11-19T12:47:26.985Z,35
2022-11-19T12:48:26.951Z,40
2022-11-19T12:49:27.685Z,35
2022-11-19T12:50:26.668Z,40
2022-11-19T12:51:26.901Z,40
2022-11-19T12:52:27.221Z,40
2022-11-19T12:53:26.806Z,40
2022-11-19T12:54:41.304Z,45
2022-11-19T12:55:26.317Z,45
2022-11-19T12:56:26.284Z,45
2022-11-19T12:57:26.770Z,50
2022-11-19T12:58:26.241Z,45
2022-11-19T12:59:28.239Z,45
2022-11-19T13:00:26.211Z,50
2022-11-19T13:01:27.352Z,50
2022-11-19T13:02:26.925Z,50
2022-11-19T13:03:26.383Z,50
2022-11-19T13:04:26.630Z,50
2022-11-19T13:05:26.357Z,50
2022-11-19T13:06:27.336Z,50
2022-11-19T13:07:26.632Z,50
2022-11-19T13:08:26.613Z,50
2022-11-19T13:09:27.347Z,55
2022-11-19T13:10:26.250Z,55
2022-11-19T13:11:26.735Z,60
2022-11-19T13:12:26.456Z,55
2022-11-19T13:13:26.183Z,50
2022-11-19T13:14:26.868Z,50
2022-11-19T13:15:26.345Z,50
2022-11-19T13:16:26.577Z,50
2022-11-19T13:17:26.282Z,50
2022-11-19T13:18:26.785Z,50
2022-11-19T13:19:27.698Z,55
2022-11-19T13:20:26.486Z,70
2022-11-19T13:21:26.463Z,75
2022-11-19T13:22:25.980Z,80
2022-11-19T13:23:26.165Z,85
2022-11-19T13:24:26.736Z,85
2022-11-19T13:25:26.439Z,80
2022-11-19T13:26:26.363Z,75
2022-11-19T13:27:32.368Z,75
2022-11-19T13:28:26.591Z,80
2022-11-19T13:29:26.964Z,75
2022-11-19T13:30:26.274Z,85
2022-11-19T13:31:26.286Z,80
2022-11-19T13:32:26.004Z,90
2022-11-19T13:33:25.451Z,95
2022-11-19T13:34:25.950Z,100
2022-11-19T13:35:26.469Z,110
2022-11-19T13:36:26.413Z,105
2022-11-19T13:37:25.916Z,105
2022-11-19T13:38:25.630Z,105
2022-11-19T13:39:27.125Z,100
2022-11-19T13:40:26.288Z,100
2022-11-19T13:41:26.446Z,95
2022-11-19T13:42:26.056Z,90
2022-11-19T13:43:41.554Z,75
2022-11-19T13:44:26.034Z,70
2022-11-19T13:45:25.979Z,70
2022-11-19T13:46:25.732Z,65
2022-11-19T13:47:25.674Z,65
2022-11-19T13:48:26.174Z,65
2022-11-19T13:49:27.021Z,65
2022-11-19T13:50:25.616Z,70
2022-11-19T13:51:25.606Z,65
2022-11-19T13:52:25.847Z,70
2022-11-19T13:53:25.817Z,75
2022-11-19T13:54:25.543Z,75
2022-11-19T13:55:25.785Z,75
2022-11-19T13:56:25.825Z,75
2022-11-19T13:57:25.533Z,70
2022-11-19T13:58:25.191Z,70
2022-11-19T13:59:26.223Z,70
2022-11-19T14:00:25.183Z,65
2022-11-19T14:01:25.446Z,60
2022-11-19T14:02:25.382Z,60
2022-11-19T14:03:25.887Z,60
2022-11-19T14:04:25.346Z,60
2022-11-19T14:05:25.567Z,65
2022-11-19T14:06:25.549Z,65
2022-11-19T14:07:32.133Z,65
2022-11-19T14:08:25.254Z,60
2022-11-19T14:09:26.794Z,55
2022-11-19T14:10:25.464Z,55
2022-11-19T14:11:25.208Z,60
2022-11-19T14:12:25.506Z,60
2022-11-19T14:13:25.214Z,55
2022-11-19T14:14:24.875Z,55
2022-11-19T14:15:25.117Z,55
2022-11-19T14:16:24.831Z,55
2022-11-19T14:17:25.333Z,55
2022-11-19T14:18:25.019Z,55
2022-11-19T14:19:26.229Z,55
2022-11-19T14:20:25.013Z,55
2022-11-19T14:21:25.017Z,55
2022-11-19T14:22:25.220Z,55
2022-11-19T14:23:24.955Z,55
2022-11-19T14:24:24.927Z,55
2022-11-19T14:25:25.421Z,55
2022-11-19T14:26:24.880Z,55
2022-11-19T14:27:25.392Z,55
2022-11-19T14:28:25.433Z,50
2022-11-19T14:29:26.544Z,45
2022-11-19T14:30:25.353Z,45
2022-11-19T14:31:24.778Z,40
2022-11-19T14:32:24.769Z,40
2022-11-19T14:33:25.272Z,40
2022-11-19T14:34:24.980Z,45
2022-11-19T14:35:24.703Z,45
2022-11-19T14:36:25.226Z,40
2022-11-19T14:37:24.914Z,35
2022-11-19T14:38:24.639Z,35
2022-11-19T14:39:25.370Z,35
2022-11-19T14:40:24.598Z,35
2022-11-19T14:41:24.582Z,35
2022-11-19T14:42:24.596Z,35
2022-11-19T14:43:24.567Z,30
2022-11-19T14:44:24.853Z,30
2022-11-19T14:45:24.799Z,30
2022-11-19T14:46:24.214Z,25
2022-11-19T14:47:27.414Z,25
2022-11-19T14:48:24.954Z,25
2022-11-19T14:49:26.379Z,25
2022-11-19T14:50:24.393Z,20
2022-11-19T14:51:24.122Z,20
2022-11-19T14:52:24.871Z,20
2022-11-19T14:53:24.606Z,20
2022-11-19T14:54:32.821Z,20
2022-11-19T14:55:24.797Z,20
2022-11-19T14:56:24.032Z,15
2022-11-19T14:57:24.247Z,15
2022-11-19T14:58:24.483Z,15
2022-11-19T14:59:24.461Z,15
2022-11-19T15:00:24.524Z,15
2022-11-19T15:01:30.174Z,15
2022-11-19T15:02:24.661Z,15
2022-11-19T15:03:24.807Z,10
2022-11-19T15:04:24.711Z,10
2022-11-19T15:05:23.575Z,10
2022-11-19T15:06:23.807Z,10
2022-11-19T15:07:24.177Z,10
2022-11-19T15:08:24.021Z,10
2022-11-19T15:09:24.242Z,10
2022-11-19T15:10:24.480Z,5
2022-11-19T15:11:24.482Z,5
2022-11-19T15:12:23.927Z,5
2022-11-19T15:13:23.915Z,5
2022-11-19T15:14:24.952Z,5
2022-11-19T15:15:23.871Z,5
2022-11-19T15:16:24.198Z,5
2022-11-19T15:17:24.195Z,5
2022-11-19T15:18:23.901Z,5
2022-11-19T15:19:25.476Z,5
2022-11-19T15:20:24.207Z,5
2022-11-19T15:21:24.009Z,5
2022-11-19T15:22:24.044Z,0
2022-11-19T15:23:24.206Z,0
2022-11-19T15:24:23.687Z,0
2022-11-19T15:25:24.907Z,0
2022-11-19T15:26:24.174Z,0
2022-11-19T15:27:23.920Z,0
2022-11-19T15:28:23.350Z,0
2022-11-19T15:29:25.334Z,0
2022-11-19T15:30:23.869Z,0
2022-11-19T15:31:23.798Z,0
2022-11-19T15:32:23.857Z,0
2022-11-19T15:33:23.833Z,0
2022-11-19T15:34:23.731Z,0
2022-11-19T15:35:23.447Z,0
2022-11-19T15:36:23.432Z,0
2022-11-19T15:37:24.545Z,0
2022-11-19T15:38:29.209Z,0
2022-11-19T15:39:25.711Z,0
2022-11-19T15:40:25.296Z,0
2022-11-19T15:41:24.421Z,0
2022-11-19T15:42:24.654Z,0
2022-11-19T15:43:25.164Z,0
2022-11-19T15:44:24.879Z,0
2022-11-19T15:45:24.856Z,0
2022-11-19T15:46:30.958Z,0
2022-11-19T15:47:24.878Z,0
2022-11-19T15:48:24.864Z,0
2022-11-19T15:49:25.924Z,0
2022-11-19T15:50:24.489Z,0
2022-11-19T15:51:25.034Z,0
2022-11-19T15:52:27.255Z,0
2022-11-19T15:53:24.679Z,0
2022-11-19T15:54:24.408Z,0
2022-11-19T15:55:24.245Z,0
2022-11-19T15:56:24.616Z,0
2022-11-19T15:57:24.377Z,0
2022-11-19T15:58:24.318Z,0
2022-11-19T15:59:25.960Z,0
2022-11-19T16:00:24.565Z,0
2022-11-19T16:01:24.688Z,0
2022-11-19T16:02:24.233Z,0
2022-11-19T16:03:24.468Z,0
2022-11-19T16:04:24.737Z,0
2022-11-19T16:05:24.477Z,0
2022-11-19T16:06:24.298Z,0
2022-11-19T16:07:24.248Z,0
2022-11-19T16:08:24.365Z,0
2022-11-19T16:09:25.341Z,0
2022-11-19T16:10:24.321Z,0
2022-11-19T16:11:29.555Z,0
2022-11-19T16:12:23.772Z,0
2022-11-19T16:13:24.674Z,0
2022-11-19T16:14:23.975Z,0
2022-11-19T16:15:24.388Z,0
2022-11-19T16:16:23.683Z,0
2022-11-19T16:17:24.165Z,0
2022-11-19T16:18:24.161Z,0
2022-11-19T16:19:25.110Z,0
2022-11-19T16:20:24.228Z,0
2022-11-19T16:21:24.149Z,0
2022-11-19T16:22:23.874Z,0
2022-11-19T16:23:24.509Z,0
2022-11-19T16:24:26.610Z,0
2022-11-19T16:25:24.336Z,0
2022-11-19T16:26:23.485Z,0
2022-11-19T16:27:24.219Z,0
2022-11-19T16:28:24.180Z,0
2022-11-19T16:29:24.977Z,0
2022-11-19T16:30:23.642Z,0
2022-11-19T16:31:23.113Z,0
2022-11-19T16:32:23.875Z,0
2022-11-19T16:33:23.589Z,0
2022-11-19T16:34:25.243Z,0
2022-11-19T16:35:23.530Z,0
2022-11-19T16:36:23.671Z,0
2022-11-19T16:37:24.158Z,0
2022-11-19T16:38:23.488Z,0
2022-11-19T16:39:24.749Z,0
2022-11-19T16:40:23.679Z,0
2022-11-19T16:41:23.962Z,0
2022-11-19T16:42:25.389Z,0
2022-11-19T16:43:23.113Z,0
2022-11-19T16:44:24.413Z,0
2022-11-19T16:45:23.571Z,0
2022-11-19T16:46:23.554Z,0
2022-11-19T16:47:22.787Z,0
2022-11-19T16:48:23.257Z,0
2022-11-19T16:49:22.970Z,0
2022-11-19T16:50:23.219Z,0
2022-11-19T16:51:23.179Z,0
2022-11-19T16:52:23.637Z,0
2022-11-19T16:53:23.239Z,0
2022-11-19T16:54:24.352Z,0
2022-11-19T16:55:23.352Z,0
2022-11-19T16:56:26.386Z,0
2022-11-19T16:57:23.058Z,0
2022-11-19T16:58:23.022Z,0
2022-11-19T16:59:22.776Z,0
2022-11-19T17:00:22.728Z,0
2022-11-19T17:01:29.505Z,0
2022-11-19T17:02:23.152Z,0
2022-11-19T17:03:23.195Z,0
2022-11-19T17:04:24.376Z,0
2022-11-19T17:05:23.177Z,0
2022-11-19T17:06:22.598Z,0
2022-11-19T17:07:23.597Z,0
2022-11-19T17:08:23.414Z,0
2022-11-19T17:09:23.099Z,0
2022-11-19T17:10:29.370Z,0
2022-11-19T17:11:23.037Z,0
2022-11-19T17:12:22.999Z,0
2022-11-19T17:13:22.963Z,0
2022-11-19T17:14:23.957Z,0
2022-11-19T17:15:22.671Z,0
2022-11-19T17:16:22.884Z,0
2022-11-19T17:17:23.127Z,0
2022-11-19T17:18:22.846Z,0
2022-11-19T17:19:23.033Z,0
2022-11-19T17:20:22.548Z,0
2022-11-19T17:21:22.785Z,0
2022-11-19T17:22:22.773Z,0
2022-11-19T17:23:22.224Z,0
2022-11-19T17:24:31.023Z,0
2022-11-19T17:25:22.744Z,0
2022-11-19T17:26:21.976Z,0
2022-11-19T17:27:22.393Z,0
2022-11-19T17:28:22.114Z,0